Time;durP1;ratioP1;P1;durP2;ratioP2;P2;SDS_P1;SDS_P2;PMS_P1;PMS_P2;Temp;Humidity;BMP_temperature;BMP_pressure;BME280_temperature;BME280_humidity;BME280_pressure;Samples;Min_cycle;Max_cycle;Signal;HPM_P1;HPM_P2
2023/03/20 00:00:32;;;;;;;2.83;1.83;;;8.20;99.90;;;;;;5029409;28;20616;-48
2023/03/20 00:02:58;;;;;;;1.50;1.50;;;8.20;99.90;;;;;;5021403;28;20205;-49
2023/03/20 00:05:27;;;;;;;1.67;1.33;;;8.20;99.90;;;;;;5030316;28;20220;-46
2023/03/20 00:07:56;;;;;;;1.63;1.63;;;8.20;99.90;;;;;;5019960;28;20200;-47
2023/03/20 00:10:28;;;;;;;1.20;1.20;;;8.20;99.90;;;;;;5033059;28;20211;-47
2023/03/20 00:12:59;;;;;;;1.33;1.33;;;8.30;99.90;;;;;;5024741;28;20712;-47
2023/03/20 00:15:35;;;;;;;2.23;2.13;;;8.30;99.90;;;;;;5032697;28;20254;-46
2023/03/20 00:18:02;;;;;;;2.10;2.00;;;8.30;99.90;;;;;;5032915;28;20690;-47
2023/03/20 00:20:29;;;;;;;2.23;2.13;;;8.20;99.90;;;;;;5023924;28;20693;-47
2023/03/20 00:22:56;;;;;;;2.57;2.13;;;8.20;99.90;;;;;;5032450;28;20559;-48
2023/03/20 00:25:25;;;;;;;2.50;2.40;;;8.30;99.90;;;;;;5032555;28;20228;-46
2023/03/20 00:27:53;;;;;;;2.53;2.33;;;8.30;99.90;;;;;;5028579;28;20295;-47
2023/03/20 00:30:27;;;;;;;2.43;2.33;;;8.30;99.90;;;;;;5031731;28;20198;-48
2023/03/20 00:32:59;;;;;;;2.47;2.37;;;8.20;99.90;;;;;;5032633;28;20579;-46
2023/03/20 00:35:28;;;;;;;2.27;2.17;;;8.30;99.90;;;;;;5031973;28;20705;-47
2023/03/20 00:37:59;;;;;;;1.97;1.87;;;8.30;99.90;;;;;;5024496;28;20228;-48
2023/03/20 00:40:30;;;;;;;2.17;2.10;;;8.30;99.90;;;;;;5032689;28;20256;-47
2023/03/20 00:43:03;;;;;;;3.13;2.83;;;8.20;99.90;;;;;;5024503;28;20578;-47
2023/03/20 00:45:32;;;;;;;1.83;1.83;;;8.20;99.90;;;;;;5024894;28;20258;-48
2023/03/20 00:48:03;;;;;;;2.60;1.93;;;8.30;99.90;;;;;;5024469;28;20201;-47
2023/03/20 00:50:32;;;;;;;2.67;2.53;;;8.20;99.90;;;;;;5031342;28;20270;-47
2023/03/20 00:52:59;;;;;;;2.23;2.23;;;8.30;99.90;;;;;;5030883;28;20200;-47
2023/03/20 00:55:29;;;;;;;1.90;1.80;;;8.30;99.90;;;;;;5031844;28;20760;-48
2023/03/20 00:58:00;;;;;;;2.27;2.17;;;8.30;99.90;;;;;;5032136;28;20208;-47
2023/03/20 01:00:35;;;;;;;2.13;2.07;;;8.30;99.90;;;;;;5031918;28;20208;-47
2023/03/20 01:03:11;;;;;;;2.13;2.03;;;8.30;99.90;;;;;;5031891;28;20208;-48
2023/03/20 01:05:39;;;;;;;2.57;2.40;;;8.30;99.90;;;;;;5021944;28;20319;-47
2023/03/20 01:08:11;;;;;;;1.77;1.77;;;8.30;99.90;;;;;;5032115;28;20202;-47
2023/03/20 01:10:38;;;;;;;2.30;2.10;;;8.30;99.90;;;;;;5030691;28;20270;-47
2023/03/20 01:13:16;;;;;;;2.07;1.97;;;8.40;99.90;;;;;;5031594;28;20263;-47
2023/03/20 01:15:44;;;;;;;2.13;2.00;;;8.40;99.90;;;;;;5031848;28;20224;-47
2023/03/20 01:18:14;;;;;;;2.23;2.13;;;8.50;99.90;;;;;;5031980;28;20246;-47
2023/03/20 01:20:41;;;;;;;2.40;2.30;;;8.40;99.90;;;;;;5027288;28;20206;-46
2023/03/20 01:23:09;;;;;;;1.90;1.87;;;8.30;99.90;;;;;;5031591;28;20758;-48
2023/03/20 01:25:36;;;;;;;1.93;1.93;;;8.30;99.90;;;;;;5031708;28;20224;-47
2023/03/20 01:28:11;;;;;;;2.67;2.57;;;8.30;99.90;;;;;;5026793;28;20201;-47
2023/03/20 01:30:38;;;;;;;2.17;2.07;;;8.30;99.90;;;;;;5014571;28;20290;-48
2023/03/20 01:33:16;;;;;;;2.77;2.67;;;8.30;99.90;;;;;;5019484;28;20198;-46
2023/03/20 01:35:43;;;;;;;2.63;2.50;;;8.30;99.90;;;;;;5027630;28;20220;-46
2023/03/20 01:38:15;;;;;;;2.97;2.87;;;8.30;99.90;;;;;;5023333;28;20200;-48
2023/03/20 01:40:48;;;;;;;2.60;2.40;;;8.30;99.90;;;;;;5030067;28;20208;-47
2023/03/20 01:43:17;;;;;;;3.00;2.87;;;8.30;99.90;;;;;;5030949;28;20289;-46
2023/03/20 01:45:51;;;;;;;2.60;2.50;;;8.30;99.90;;;;;;5023174;28;20285;-47
2023/03/20 01:48:20;;;;;;;2.90;2.80;;;8.30;99.90;;;;;;5031643;28;20208;-47
2023/03/20 01:50:47;;;;;;;2.57;2.47;;;8.30;99.90;;;;;;5027665;28;20680;-48
2023/03/20 01:53:17;;;;;;;2.80;2.70;;;8.30;99.90;;;;;;5021934;28;20286;-47
2023/03/20 01:55:46;;;;;;;2.80;2.70;;;8.30;99.90;;;;;;5031300;28;20792;-46
2023/03/20 01:58:19;;;;;;;2.83;2.73;;;8.30;99.90;;;;;;5031418;28;20254;-47
2023/03/20 02:00:48;;;;;;;2.73;2.53;;;8.20;99.90;;;;;;5028853;28;20575;-47
2023/03/20 02:03:16;;;;;;;3.27;2.90;;;8.20;99.90;;;;;;5025578;28;20200;-48
2023/03/20 02:05:45;;;;;;;4.00;3.67;;;8.20;99.90;;;;;;5028670;28;20228;-47
2023/03/20 02:08:20;;;;;;;3.03;2.83;;;8.30;99.90;;;;;;5025163;28;20240;-47
2023/03/20 02:10:48;;;;;;;2.73;2.63;;;8.20;99.90;;;;;;5027529;28;20203;-47
2023/03/20 02:13:16;;;;;;;4.30;3.90;;;8.20;99.90;;;;;;5029185;28;20261;-47
2023/03/20 02:15:58;;;;;;;3.10;2.90;;;8.20;99.90;;;;;;5035068;28;20224;-47
2023/03/20 02:18:26;;;;;;;3.17;2.87;;;8.30;99.90;;;;;;5027116;28;20629;-47
2023/03/20 02:21:26;;;;;;;2.97;2.87;;;8.20;99.90;;;;;;5034594;28;20562;-47
2023/03/20 02:24:36;;;;;;;3.43;3.33;;;8.20;99.90;;;;;;5024409;28;20272;-47
2023/03/20 02:27:11;;;;;;;4.60;4.27;;;8.20;99.90;;;;;;4979224;28;20230;-46
2023/03/20 02:30:20;;;;;;;3.97;3.60;;;8.20;99.90;;;;;;5034849;28;20681;-47
2023/03/20 02:33:19;;;;;;;3.80;3.60;;;8.20;99.90;;;;;;5019664;28;20261;-49
2023/03/20 02:36:16;;;;;;;3.63;3.50;;;8.20;99.90;;;;;;5026301;28;20717;-47
2023/03/20 02:39:02;;;;;;;5.00;4.80;;;8.20;99.90;;;;;;5034517;28;20259;-47
2023/03/20 02:41:33;;;;;;;4.70;4.30;;;8.20;99.90;;;;;;5034850;28;20203;-47
2023/03/20 02:44:07;;;;;;;4.83;4.53;;;8.40;99.90;;;;;;5034599;28;20269;-45
2023/03/20 02:46:45;;;;;;;4.90;4.60;;;8.40;99.90;;;;;;5034606;28;20305;-47
2023/03/20 02:49:23;;;;;;;4.87;4.53;;;8.40;99.90;;;;;;5034658;28;20223;-46
2023/03/20 02:51:57;;;;;;;4.50;4.20;;;8.30;99.90;;;;;;5031055;28;20265;-48
2023/03/20 02:54:31;;;;;;;5.33;5.03;;;8.30;99.90;;;;;;5034034;28;20741;-47
2023/03/20 02:57:03;;;;;;;5.70;5.30;;;8.30;99.90;;;;;;5024076;28;20594;-47
2023/03/20 02:59:36;;;;;;;4.87;4.57;;;8.20;99.90;;;;;;5034258;28;20288;-48
2023/03/20 03:02:08;;;;;;;5.90;5.50;;;8.20;99.90;;;;;;5034573;28;20210;-47
2023/03/20 03:04:38;;;;;;;4.63;4.43;;;8.20;99.90;;;;;;5034060;28;20228;-47
2023/03/20 03:07:08;;;;;;;5.33;4.93;;;8.20;99.90;;;;;;5034182;28;20658;-46
2023/03/20 03:09:41;;;;;;;5.30;4.90;;;8.20;99.90;;;;;;5025102;28;20199;-47
2023/03/20 03:12:14;;;;;;;5.93;5.33;;;8.20;99.90;;;;;;5024258;28;20201;-47
2023/03/20 03:14:44;;;;;;;5.90;5.43;;;8.30;99.90;;;;;;5025359;28;20225;-46
2023/03/20 03:17:14;;;;;;;4.80;4.50;;;8.30;99.90;;;;;;5033041;28;20243;-48
2023/03/20 03:19:46;;;;;;;5.00;4.70;;;8.30;99.90;;;;;;5033969;28;20283;-47
2023/03/20 03:22:15;;;;;;;5.53;5.10;;;8.20;99.90;;;;;;5033848;28;20208;-47
2023/03/20 03:24:46;;;;;;;5.80;5.47;;;8.20;99.90;;;;;;5032862;28;20795;-46
2023/03/20 03:27:19;;;;;;;4.93;4.63;;;8.20;99.90;;;;;;5026230;28;20224;-45
2023/03/20 03:29:51;;;;;;;4.90;4.60;;;8.30;99.90;;;;;;5027353;28;20727;-48
2023/03/20 03:32:31;;;;;;;5.13;4.73;;;8.20;99.90;;;;;;5028364;28;20283;-47
2023/03/20 03:35:00;;;;;;;4.93;4.63;;;8.20;99.90;;;;;;5032916;28;20232;-45
2023/03/20 03:37:48;;;;;;;5.57;5.17;;;8.20;99.90;;;;;;5025172;28;20204;-46
2023/03/20 03:40:24;;;;;;;4.83;4.53;;;8.20;99.90;;;;;;5014019;28;20212;-46
2023/03/20 03:42:59;;;;;;;4.90;4.60;;;8.10;99.90;;;;;;5019436;28;20660;-46
2023/03/20 03:45:32;;;;;;;5.43;4.93;;;8.10;99.90;;;;;;5027990;28;20231;-46
2023/03/20 03:48:04;;;;;;;5.10;4.80;;;8.10;99.90;;;;;;5014012;28;20204;-47
2023/03/20 03:50:36;;;;;;;5.20;4.80;;;8.10;99.90;;;;;;5013685;28;20671;-48
2023/03/20 03:53:10;;;;;;;6.10;5.53;;;8.20;99.90;;;;;;5013678;28;20199;-46
2023/03/20 03:55:42;;;;;;;5.37;4.97;;;8.20;99.90;;;;;;5013361;28;20290;-47
2023/03/20 03:58:14;;;;;;;6.03;5.53;;;8.20;99.90;;;;;;5013771;28;20206;-46
2023/03/20 04:00:45;;;;;;;5.83;5.37;;;8.10;99.90;;;;;;5031166;28;20207;-47
2023/03/20 04:03:13;;;;;;;5.60;5.23;;;8.10;99.90;;;;;;5026644;28;20209;-47
2023/03/20 04:05:44;;;;;;;5.53;5.13;;;8.00;99.90;;;;;;5030552;28;20267;-48
2023/03/20 04:08:11;;;;;;;4.93;4.63;;;8.00;99.90;;;;;;5033051;28;20629;-48
2023/03/20 04:10:39;;;;;;;5.47;5.07;;;8.00;99.90;;;;;;5033289;28;20254;-46
2023/03/20 04:13:06;;;;;;;5.33;5.00;;;8.00;99.90;;;;;;5030087;28;20231;-46
2023/03/20 04:15:33;;;;;;;6.43;5.90;;;8.00;99.90;;;;;;5031915;28;20278;-46
2023/03/20 04:18:01;;;;;;;5.97;5.57;;;8.00;99.90;;;;;;5032866;28;20204;-47
2023/03/20 04:20:28;;;;;;;6.57;5.87;;;8.00;99.90;;;;;;5032804;28;20686;-47
2023/03/20 04:23:00;;;;;;;5.97;5.57;;;8.00;99.90;;;;;;5032699;28;20212;-47
2023/03/20 04:25:27;;;;;;;6.13;5.57;;;8.00;99.90;;;;;;5031675;28;20275;-47
2023/03/20 04:27:59;;;;;;;6.17;5.60;;;8.00;99.90;;;;;;5023119;28;20659;-46
2023/03/20 04:30:26;;;;;;;7.20;6.70;;;8.00;99.90;;;;;;5013640;28;20208;-47
2023/03/20 04:32:53;;;;;;;6.83;6.33;;;8.00;99.90;;;;;;5031648;28;20195;-45
2023/03/20 04:35:20;;;;;;;5.90;5.50;;;8.10;99.90;;;;;;5031808;28;20224;-46
2023/03/20 04:37:47;;;;;;;6.30;5.77;;;8.10;99.90;;;;;;5032560;28;20202;-46
2023/03/20 04:40:14;;;;;;;5.47;5.07;;;8.10;99.90;;;;;;5032435;28;20612;-47
2023/03/20 04:42:41;;;;;;;5.93;5.53;;;8.10;99.90;;;;;;5030610;28;20208;-46
2023/03/20 04:45:10;;;;;;;6.73;6.33;;;8.10;99.90;;;;;;5023362;28;20779;-47
2023/03/20 04:47:37;;;;;;;7.20;6.33;;;8.10;99.90;;;;;;5030800;28;20222;-45
2023/03/20 04:50:06;;;;;;;7.30;6.73;;;8.10;99.90;;;;;;5022917;28;20669;-47
2023/03/20 04:52:33;;;;;;;7.73;7.10;;;8.10;99.90;;;;;;5031339;28;20676;-45
2023/03/20 04:54:59;;;;;;;6.70;6.20;;;8.10;99.90;;;;;;5031829;28;20291;-46
2023/03/20 04:57:27;;;;;;;6.10;5.70;;;8.10;99.90;;;;;;5032150;28;20203;-46
2023/03/20 04:59:54;;;;;;;6.63;6.13;;;8.10;99.90;;;;;;5028292;28;20671;-46
2023/03/20 05:02:22;;;;;;;4.80;4.50;;;8.10;99.90;;;;;;5029507;28;20736;-47
2023/03/20 05:04:49;;;;;;;4.70;4.40;;;8.10;99.90;;;;;;5031529;28;20223;-47
2023/03/20 05:07:16;;;;;;;3.23;3.13;;;8.10;99.90;;;;;;5030877;28;20243;-46
2023/03/20 05:09:43;;;;;;;3.07;2.93;;;8.20;99.90;;;;;;5027813;28;20200;-48
2023/03/20 05:12:11;;;;;;;3.67;3.47;;;8.20;99.90;;;;;;5031862;28;20200;-46
2023/03/20 05:14:38;;;;;;;4.43;4.13;;;8.20;99.90;;;;;;5031472;28;20234;-46
2023/03/20 05:17:05;;;;;;;3.93;3.73;;;8.20;99.90;;;;;;5030866;28;20196;-46
2023/03/20 05:19:33;;;;;;;4.07;3.77;;;8.20;99.90;;;;;;5031699;28;20222;-47
2023/03/20 05:22:00;;;;;;;3.30;3.20;;;8.10;99.90;;;;;;5031777;28;20204;-47
2023/03/20 05:24:28;;;;;;;3.63;3.33;;;8.10;99.90;;;;;;5030791;28;20256;-47
2023/03/20 05:26:55;;;;;;;5.83;3.90;;;8.20;99.90;;;;;;5031263;28;20215;-47
2023/03/20 05:29:22;;;;;;;6.20;3.90;;;8.20;99.90;;;;;;5031569;28;20264;-46
2023/03/20 05:31:49;;;;;;;4.20;3.80;;;8.20;99.90;;;;;;5031066;28;20216;-48
2023/03/20 05:34:16;;;;;;;3.87;3.57;;;8.20;99.90;;;;;;5031741;28;20220;-46
2023/03/20 05:36:44;;;;;;;3.17;2.97;;;8.30;99.90;;;;;;5031919;28;20255;-48
2023/03/20 05:39:12;;;;;;;4.70;4.30;;;8.30;99.90;;;;;;5030757;28;20254;-48
2023/03/20 05:41:39;;;;;;;3.77;3.40;;;8.20;99.90;;;;;;5031568;28;20210;-46
2023/03/20 05:44:06;;;;;;;4.20;3.97;;;8.20;99.90;;;;;;5030799;28;20223;-47
2023/03/20 05:46:33;;;;;;;6.77;6.27;;;8.20;99.90;;;;;;5032464;28;20583;-48
2023/03/20 05:49:00;;;;;;;10.00;9.10;;;8.20;99.90;;;;;;5035790;28;20210;-48
2023/03/20 05:51:27;;;;;;;8.80;8.07;;;8.30;99.90;;;;;;5035772;28;20215;-48
2023/03/20 05:53:56;;;;;;;10.03;8.97;;;8.30;99.90;;;;;;5032254;28;20602;-47
2023/03/20 05:56:23;;;;;;;8.77;8.20;;;8.30;99.90;;;;;;5027360;28;20197;-46
2023/03/20 05:58:50;;;;;;;9.50;8.70;;;8.40;99.90;;;;;;5033932;28;20207;-46
2023/03/20 06:01:20;;;;;;;9.53;8.73;;;8.40;99.90;;;;;;5033958;28;20204;-49
2023/03/20 06:03:48;;;;;;;8.27;7.67;;;8.40;99.90;;;;;;5033477;28;20212;-45
2023/03/20 06:06:15;;;;;;;7.83;7.30;;;8.40;99.90;;;;;;5034793;28;20250;-47
2023/03/20 06:08:44;;;;;;;8.63;8.00;;;8.40;99.90;;;;;;5034577;28;20195;-48
2023/03/20 06:11:12;;;;;;;9.97;9.07;;;8.40;99.90;;;;;;5035075;28;20271;-48
2023/03/20 06:13:39;;;;;;;11.43;10.33;;;8.40;99.90;;;;;;5034558;28;20258;-46
2023/03/20 06:16:07;;;;;;;10.03;9.03;;;8.30;99.90;;;;;;5034828;28;20262;-48
2023/03/20 06:18:34;;;;;;;10.93;9.50;;;8.30;99.90;;;;;;5035138;28;20253;-46
2023/03/20 06:21:01;;;;;;;9.17;8.30;;;8.30;99.90;;;;;;5034744;28;20198;-48
2023/03/20 06:23:29;;;;;;;9.20;8.50;;;8.30;99.90;;;;;;5034675;28;20237;-47
2023/03/20 06:25:55;;;;;;;10.20;9.27;;;8.40;99.90;;;;;;5034952;28;20240;-47
2023/03/20 06:28:24;;;;;;;8.77;8.07;;;8.40;99.90;;;;;;5032730;28;20200;-47
2023/03/20 06:30:52;;;;;;;9.73;8.87;;;8.40;99.90;;;;;;5028240;28;20265;-46
2023/03/20 06:33:19;;;;;;;8.80;8.20;;;8.40;99.90;;;;;;5024497;28;20205;-47
2023/03/20 06:35:47;;;;;;;10.93;9.20;;;8.40;99.90;;;;;;5033412;28;20287;-47
2023/03/20 06:38:14;;;;;;;10.70;9.60;;;8.50;99.90;;;;;;5033062;28;20433;-46
2023/03/20 06:40:41;;;;;;;9.33;8.53;;;8.50;99.90;;;;;;5034639;28;20581;-48
2023/03/20 06:43:11;;;;;;;9.23;8.43;;;8.60;99.90;;;;;;5033759;28;20659;-47
2023/03/20 06:45:40;;;;;;;8.37;7.67;;;8.70;99.90;;;;;;5030745;28;20215;-46
2023/03/20 06:48:07;;;;;;;9.07;8.27;;;8.70;99.90;;;;;;5028786;28;20282;-48
2023/03/20 06:50:34;;;;;;;8.63;7.93;;;8.70;99.90;;;;;;5033064;28;20208;-46
2023/03/20 06:53:01;;;;;;;8.83;8.13;;;8.70;99.90;;;;;;5030755;28;20286;-48
2023/03/20 06:55:28;;;;;;;8.17;7.37;;;8.60;99.90;;;;;;5026309;28;20235;-47
2023/03/20 06:57:57;;;;;;;7.90;7.20;;;8.70;99.90;;;;;;5028895;28;20662;-47
2023/03/20 07:00:25;;;;;;;8.20;7.40;;;8.70;99.90;;;;;;5031460;28;20204;-46
2023/03/20 07:02:57;;;;;;;11.07;7.13;;;8.80;99.90;;;;;;5030009;28;20758;-46
2023/03/20 07:05:24;;;;;;;7.80;7.13;;;8.80;99.90;;;;;;5032064;28;20220;-46
2023/03/20 07:07:52;;;;;;;8.63;7.67;;;8.80;99.90;;;;;;5030794;28;20323;-47
2023/03/20 07:10:20;;;;;;;13.77;11.33;;;8.80;99.90;;;;;;5033747;28;20620;-47
2023/03/20 07:12:47;;;;;;;12.07;10.97;;;8.80;99.90;;;;;;5034109;28;20631;-46
2023/03/20 07:15:14;;;;;;;12.83;11.07;;;8.80;99.90;;;;;;5033765;28;20753;-47
2023/03/20 07:17:41;;;;;;;10.20;9.30;;;8.80;99.90;;;;;;5033767;28;20196;-48
2023/03/20 07:20:11;;;;;;;15.10;12.23;;;8.80;99.90;;;;;;5033147;28;20695;-46
2023/03/20 07:22:40;;;;;;;10.20;9.30;;;8.80;99.90;;;;;;5030314;28;20304;-46
2023/03/20 07:25:08;;;;;;;10.90;9.80;;;8.80;99.90;;;;;;5032469;28;20270;-46
2023/03/20 07:27:36;;;;;;;10.23;9.30;;;8.90;99.90;;;;;;5030183;28;20234;-46
2023/03/20 07:30:03;;;;;;;9.80;8.90;;;8.90;99.90;;;;;;5033638;28;20300;-47
2023/03/20 07:32:30;;;;;;;9.17;8.27;;;9.00;99.90;;;;;;5032927;28;20254;-47
2023/03/20 07:34:58;;;;;;;8.90;8.10;;;9.00;99.90;;;;;;5033612;28;20224;-46
2023/03/20 07:37:26;;;;;;;9.87;9.00;;;9.20;99.90;;;;;;5051850;28;20250;-50
2023/03/20 07:39:53;;;;;;;7.70;7.00;;;9.30;99.90;;;;;;5037156;28;20201;-46
2023/03/20 07:42:20;;;;;;;8.80;8.20;;;9.30;99.90;;;;;;5023974;28;20288;-47
2023/03/20 07:44:47;;;;;;;16.53;8.47;;;9.40;99.90;;;;;;5023782;28;20258;-46
2023/03/20 07:47:14;;;;;;;9.47;8.67;;;9.40;99.90;;;;;;5013603;28;20221;-47
2023/03/20 07:49:41;;;;;;;8.50;7.73;;;9.40;99.90;;;;;;5019253;28;20699;-47
2023/03/20 07:52:08;;;;;;;7.40;6.90;;;9.50;99.90;;;;;;5027495;28;20287;-47
2023/03/20 07:54:37;;;;;;;7.10;6.60;;;9.50;99.90;;;;;;5032816;28;20259;-46
2023/03/20 07:57:04;;;;;;;7.00;6.40;;;9.50;99.90;;;;;;5024639;28;20200;-46
2023/03/20 07:59:31;;;;;;;7.03;6.43;;;9.70;99.90;;;;;;5033181;28;20207;-47
2023/03/20 08:01:59;;;;;;;7.13;5.97;;;9.90;99.90;;;;;;5031335;28;20257;-49
2023/03/20 08:04:26;;;;;;;6.83;6.13;;;9.90;99.90;;;;;;5032704;28;20227;-46
2023/03/20 08:06:53;;;;;;;5.27;4.97;;;10.20;99.90;;;;;;5032697;28;20224;-48
2023/03/20 08:09:20;;;;;;;5.93;5.53;;;10.20;99.90;;;;;;5032169;28;20209;-46
2023/03/20 08:11:48;;;;;;;7.00;5.93;;;10.40;99.90;;;;;;5033086;28;20212;-47
2023/03/20 08:14:15;;;;;;;5.77;5.37;;;10.40;99.90;;;;;;5030927;28;20274;-47
2023/03/20 08:16:42;;;;;;;5.60;5.30;;;10.40;99.90;;;;;;5032814;28;20203;-46
2023/03/20 08:19:09;;;;;;;6.40;5.80;;;10.50;99.90;;;;;;5032889;28;20682;-48
2023/03/20 08:21:36;;;;;;;6.13;5.63;;;10.60;99.90;;;;;;5031034;28;20215;-47
2023/03/20 08:24:03;;;;;;;6.13;5.70;;;10.80;99.90;;;;;;5032709;28;20272;-47
2023/03/20 08:26:30;;;;;;;5.63;5.17;;;10.90;99.90;;;;;;5024473;28;20630;-47
2023/03/20 08:28:58;;;;;;;4.17;3.87;;;10.80;99.90;;;;;;5024450;28;20675;-47
2023/03/20 08:31:25;;;;;;;5.23;4.97;;;10.70;99.90;;;;;;5023586;28;20611;-47
2023/03/20 08:33:52;;;;;;;6.50;5.80;;;10.90;99.90;;;;;;5032409;28;20222;-48
2023/03/20 08:36:20;;;;;;;4.73;4.43;;;11.30;99.90;;;;;;5032548;28;20733;-47
2023/03/20 08:38:48;;;;;;;4.00;3.80;;;11.70;99.90;;;;;;5031783;28;20205;-48
2023/03/20 08:41:15;;;;;;;4.37;4.03;;;11.90;99.90;;;;;;5032577;28;20195;-45
2023/03/20 08:43:42;;;;;;;5.00;4.70;;;11.90;99.90;;;;;;5036522;28;20203;-47
2023/03/20 08:46:10;;;;;;;4.97;4.53;;;11.80;99.90;;;;;;5032550;28;20627;-47
2023/03/20 08:48:37;;;;;;;3.80;3.43;;;12.00;99.90;;;;;;5024015;28;20265;-48
2023/03/20 08:51:06;;;;;;;4.77;4.37;;;12.10;99.90;;;;;;5031592;28;20201;-46
2023/03/20 08:53:33;;;;;;;4.97;4.33;;;12.40;99.90;;;;;;5033240;28;20199;-47
2023/03/20 08:56:00;;;;;;;4.40;4.10;;;12.50;99.90;;;;;;5030103;28;20732;-48
2023/03/20 08:58:27;;;;;;;3.70;3.40;;;12.20;99.90;;;;;;5032227;28;20230;-47
2023/03/20 09:00:54;;;;;;;3.50;3.40;;;12.00;99.90;;;;;;5032169;28;20696;-47
2023/03/20 09:03:23;;;;;;;3.57;3.37;;;12.10;99.90;;;;;;5031277;28;20205;-48
2023/03/20 09:05:51;;;;;;;5.33;4.23;;;11.90;99.90;;;;;;5023274;28;20220;-47
2023/03/20 09:08:18;;;;;;;3.87;3.67;;;11.90;99.90;;;;;;5031768;28;20327;-48
2023/03/20 09:10:47;;;;;;;3.90;3.70;;;11.90;99.90;;;;;;5032499;28;20259;-47
2023/03/20 09:13:14;;;;;;;3.70;3.50;;;12.00;99.90;;;;;;5032148;28;20621;-46
2023/03/20 09:15:41;;;;;;;3.77;3.57;;;12.00;99.90;;;;;;5031775;28;20781;-46
2023/03/20 09:18:08;;;;;;;3.03;2.83;;;12.10;99.90;;;;;;5032081;28;20275;-47
2023/03/20 09:20:36;;;;;;;3.60;3.03;;;12.10;99.90;;;;;;5030745;28;20205;-46
2023/03/20 09:23:03;;;;;;;3.03;2.90;;;12.00;99.90;;;;;;5024286;28;20198;-47
2023/03/20 09:25:30;;;;;;;3.13;3.00;;;12.20;99.90;;;;;;5031957;28;20275;-46
2023/03/20 09:27:58;;;;;;;3.50;3.17;;;12.20;99.90;;;;;;5032215;28;20233;-46
2023/03/20 09:30:25;;;;;;;2.90;2.70;;;12.20;99.90;;;;;;5032522;28;20698;-45
2023/03/20 09:32:52;;;;;;;3.97;3.50;;;12.50;99.90;;;;;;5032265;28;20205;-47
2023/03/20 09:35:20;;;;;;;3.47;3.27;;;12.70;99.90;;;;;;5025027;28;20216;-48
2023/03/20 09:37:49;;;;;;;3.30;3.10;;;12.90;99.90;;;;;;5030382;28;20739;-47
2023/03/20 09:40:26;;;;;;;3.77;2.87;;;13.00;99.90;;;;;;5031883;28;20244;-47
2023/03/20 09:43:07;;;;;;;3.07;2.93;;;13.20;99.90;;;;;;5032057;28;20264;-47
2023/03/20 09:45:47;;;;;;;2.63;2.53;;;13.60;99.90;;;;;;5031964;28;20367;-47
2023/03/20 09:48:25;;;;;;;2.90;2.70;;;14.50;99.90;;;;;;5031495;28;20278;-47
2023/03/20 09:50:59;;;;;;;2.47;2.27;;;15.40;99.90;;;;;;5031442;28;20244;-46
2023/03/20 09:53:31;;;;;;;2.67;2.43;;;16.20;99.90;;;;;;5022425;28;20199;-47
2023/03/20 09:55:59;;;;;;;2.80;2.70;;;16.20;99.90;;;;;;5012192;28;20214;-47
2023/03/20 09:58:31;;;;;;;2.20;2.20;;;16.10;99.90;;;;;;5026542;28;20752;-48
2023/03/20 10:01:00;;;;;;;2.30;2.20;;;16.50;99.90;;;;;;5025070;28;20198;-47
2023/03/20 10:03:31;;;;;;;3.10;2.93;;;16.80;99.90;;;;;;5027245;28;20198;-47
2023/03/20 10:06:02;;;;;;;2.00;1.90;;;17.50;99.90;;;;;;5031317;28;20249;-48
2023/03/20 10:08:35;;;;;;;2.50;2.43;;;18.50;99.90;;;;;;5030532;28;20226;-47
2023/03/20 10:11:15;;;;;;;2.23;2.13;;;19.40;99.90;;;;;;5023724;28;20205;-48
2023/03/20 10:13:58;;;;;;;2.63;2.53;;;20.10;99.90;;;;;;5029120;28;20209;-47
2023/03/20 10:16:39;;;;;;;2.10;2.10;;;19.30;99.90;;;;;;5011504;28;20199;-47
2023/03/20 10:19:17;;;;;;;2.80;2.70;;;18.90;99.90;;;;;;5014612;28;20198;-47
2023/03/20 10:21:47;;;;;;;2.77;2.57;;;19.60;99.90;;;;;;5030856;28;20202;-48
2023/03/20 10:24:22;;;;;;;2.60;2.50;;;20.20;99.90;;;;;;5029666;28;20238;-48
2023/03/20 10:26:52;;;;;;;2.60;2.50;;;20.60;99.90;;;;;;5029238;28;20232;-47
2023/03/20 10:29:28;;;;;;;2.53;2.43;;;20.80;99.90;;;;;;5030917;28;20272;-48
2023/03/20 10:32:03;;;;;;;2.17;2.07;;;20.50;99.90;;;;;;5031120;28;20618;-48
2023/03/20 10:34:53;;;;;;;1.93;1.93;;;19.80;99.90;;;;;;5034711;28;20229;-48
2023/03/20 10:37:31;;;;;;;1.90;1.87;;;18.10;99.90;;;;;;5032988;28;20206;-47
2023/03/20 10:40:13;;;;;;;2.00;1.57;;;17.50;99.90;;;;;;5032103;28;20203;-47
2023/03/20 10:42:45;;;;;;;2.53;2.37;;;16.60;99.90;;;;;;5033914;28;20202;-47
2023/03/20 10:45:26;;;;;;;2.40;2.20;;;16.00;99.90;;;;;;5034503;28;20594;-47
2023/03/20 10:47:58;;;;;;;2.10;1.93;;;15.10;99.90;;;;;;5030954;28;20214;-48
2023/03/20 10:50:31;;;;;;;2.43;1.90;;;14.90;99.90;;;;;;5030084;28;20245;-48
2023/03/20 10:53:00;;;;;;;2.00;1.83;;;14.90;99.90;;;;;;5034503;28;20742;-49
2023/03/20 10:55:32;;;;;;;2.03;1.73;;;14.90;99.90;;;;;;5034176;28;20226;-47
2023/03/20 10:58:03;;;;;;;2.03;1.87;;;14.50;99.90;;;;;;5031489;28;20264;-47
2023/03/20 11:00:30;;;;;;;1.70;1.60;;;14.10;99.90;;;;;;5033712;28;20298;-48
2023/03/20 11:02:59;;;;;;;1.90;1.27;;;14.20;99.90;;;;;;5025384;28;20202;-48
2023/03/20 11:05:30;;;;;;;1.13;1.13;;;14.20;99.90;;;;;;5033045;28;20642;-48
2023/03/20 11:08:03;;;;;;;1.60;1.50;;;14.30;99.90;;;;;;5030273;28;20301;-48
2023/03/20 11:10:34;;;;;;;1.37;1.17;;;14.60;99.90;;;;;;5034348;28;20206;-48
2023/03/20 11:13:14;;;;;;;2.13;1.20;;;14.50;99.90;;;;;;5034230;28;20200;-47
2023/03/20 11:15:41;;;;;;;1.37;1.37;;;14.30;99.90;;;;;;5031681;28;20302;-47
2023/03/20 11:18:12;;;;;;;2.07;1.97;;;14.40;99.90;;;;;;5027284;28;20653;-47
2023/03/20 11:20:45;;;;;;;2.97;1.90;;;14.30;99.90;;;;;;5034033;28;20209;-47
2023/03/20 11:23:16;;;;;;;1.80;1.70;;;14.20;99.90;;;;;;5033860;28;20210;-48
2023/03/20 11:25:51;;;;;;;2.80;1.53;;;14.40;99.90;;;;;;5033313;28;20254;-48
2023/03/20 11:28:26;;;;;;;2.10;1.67;;;14.60;99.90;;;;;;5034188;28;20299;-50
2023/03/20 11:30:59;;;;;;;1.47;1.37;;;14.50;99.90;;;;;;5034210;28;20201;-48
2023/03/20 11:33:27;;;;;;;1.57;1.57;;;14.80;99.90;;;;;;5025940;28;20195;-47
2023/03/20 11:35:57;;;;;;;1.40;1.40;;;15.00;99.90;;;;;;5034623;28;20276;-48
2023/03/20 11:38:24;;;;;;;1.90;1.80;;;15.20;99.90;;;;;;5033712;28;20233;-48
2023/03/20 11:40:53;;;;;;;2.47;1.93;;;15.30;99.90;;;;;;5028548;28;20676;-48
2023/03/20 11:43:22;;;;;;;2.50;1.43;;;15.20;99.90;;;;;;5028306;28;20704;-47
2023/03/20 11:45:54;;;;;;;1.80;1.70;;;15.10;99.90;;;;;;5033214;28;20280;-49
2023/03/20 11:48:23;;;;;;;2.40;2.30;;;14.90;99.90;;;;;;5024657;28;20268;-48
2023/03/20 11:51:00;;;;;;;3.53;3.33;;;14.40;99.90;;;;;;5033411;28;20206;-48
2023/03/20 11:53:31;;;;;;;2.53;2.43;;;14.30;99.90;;;;;;5033519;28;20182;-48
2023/03/20 11:56:10;;;;;;;3.27;2.90;;;14.40;99.90;;;;;;5032891;28;20218;-47
2023/03/20 11:58:46;;;;;;;4.60;4.30;;;14.50;99.90;;;;;;5033378;28;20212;-47
2023/03/20 12:01:14;;;;;;;3.50;3.30;;;14.60;99.90;;;;;;5033217;28;20224;-48
2023/03/20 12:03:45;;;;;;;2.13;2.13;;;15.00;99.90;;;;;;5031530;28;20991;-48
2023/03/20 12:06:17;;;;;;;2.47;1.97;;;15.30;99.90;;;;;;5026719;28;20207;-49
2023/03/20 12:08:51;;;;;;;1.70;1.60;;;15.40;99.90;;;;;;5013390;28;20277;-48
2023/03/20 12:11:41;;;;;;;1.57;1.57;;;15.40;99.90;;;;;;5029905;28;20292;-49
2023/03/20 12:14:17;;;;;;;2.10;1.63;;;15.40;99.90;;;;;;5027686;28;20591;-48
2023/03/20 12:16:45;;;;;;;2.57;1.77;;;15.20;99.90;;;;;;5031968;28;20263;-47
2023/03/20 12:19:16;;;;;;;2.50;2.07;;;15.20;99.90;;;;;;5032317;28;20202;-49
2023/03/20 12:21:49;;;;;;;2.53;2.20;;;15.00;99.90;;;;;;5030468;28;20627;-48
2023/03/20 12:24:26;;;;;;;3.60;1.87;;;15.20;99.90;;;;;;5025764;28;20264;-48
2023/03/20 12:27:00;;;;;;;2.17;1.80;;;15.00;99.90;;;;;;5023533;28;20276;-47
2023/03/20 12:29:31;;;;;;;2.13;2.03;;;15.10;99.90;;;;;;5032757;28;20228;-51
2023/03/20 12:32:03;;;;;;;2.50;2.30;;;14.90;99.90;;;;;;5032799;28;20202;-47
2023/03/20 12:34:36;;;;;;;1.80;1.80;;;14.70;99.90;;;;;;5031311;28;20720;-48
2023/03/20 12:37:03;;;;;;;2.20;2.07;;;14.60;99.90;;;;;;5026648;28;20201;-47
2023/03/20 12:39:35;;;;;;;2.63;2.50;;;14.50;99.90;;;;;;5032358;28;20804;-47
2023/03/20 12:42:14;;;;;;;2.53;2.33;;;14.40;99.90;;;;;;5032420;28;20209;-48
2023/03/20 12:44:48;;;;;;;2.63;2.53;;;14.30;99.90;;;;;;5032284;28;20282;-48
2023/03/20 12:47:31;;;;;;;2.50;2.00;;;14.20;99.90;;;;;;5032360;28;20208;-47
2023/03/20 12:50:07;;;;;;;2.63;2.43;;;13.80;99.90;;;;;;5032617;28;20222;-48
2023/03/20 12:52:46;;;;;;;2.53;2.43;;;13.30;99.90;;;;;;5031263;28;20670;-47
2023/03/20 12:55:35;;;;;;;2.43;2.03;;;13.20;99.90;;;;;;5025319;28;20773;-47
2023/03/20 12:58:16;;;;;;;2.67;2.47;;;13.50;99.90;;;;;;5032225;28;20668;-48
2023/03/20 13:00:51;;;;;;;3.47;2.40;;;13.40;99.90;;;;;;5032417;28;20202;-48
2023/03/20 13:03:35;;;;;;;2.33;2.23;;;13.50;99.90;;;;;;5032139;28;20258;-47
2023/03/20 13:06:08;;;;;;;2.83;2.63;;;13.50;99.90;;;;;;5031691;28;20295;-48
2023/03/20 13:08:57;;;;;;;2.20;2.10;;;13.40;99.90;;;;;;5031918;28;20647;-48
2023/03/20 13:11:31;;;;;;;2.17;2.07;;;13.40;99.90;;;;;;5022795;28;20269;-48